Harrison Township, New Jersey
Current Conditions -  °F | °C
As of 7:54 PM on Sunday 23 Nov 2014 (Local Time) from KPHL Reporting Station
Broken Clouds Broken Clouds  
Wind Chill: 49°   Ceiling: 25000
Heat Index: 49°   Visibility: 10mi
Dew Point: 41°   Wind: 3mph
Humidity: 74%   Direction: 90°E
Pressure: 30.08"   Gusts: NA
Location:  39.7176°N, 75.2231°W
Report Text: KPHL 240054Z 09003KT 10SM FEW100 BKN250 09/05 A3008 RMK AO2 SLP187 T00940050 $
Loading
Personal Weather Stations






























Interactive Weather Map New forecast layout! Learn more

10-Day Weather Forecast

Advertisements
Track Severe Weather on mobile